createdAt,value
2023-01-07T00:02:26.654Z,70.5
2023-01-07T00:08:02.973Z,70.3
2023-01-07T00:13:38.884Z,70
2023-01-07T00:19:15.135Z,69.7
2023-01-07T00:24:50.193Z,70.7
2023-01-07T00:30:26.214Z,70.1
2023-01-07T00:36:02.217Z,69.7
2023-01-07T00:41:37.359Z,69.9
2023-01-07T00:47:14.459Z,69.8
2023-01-07T00:52:51.749Z,70.6
2023-01-07T00:58:27.425Z,70.5
2023-01-07T01:04:03.364Z,70.6
2023-01-07T01:09:39.054Z,70.4
2023-01-07T01:15:14.760Z,70.6
2023-01-07T01:20:50.941Z,70.6
2023-01-07T01:26:30.309Z,69.7
2023-01-07T01:32:05.682Z,70.4
2023-01-07T01:37:41.654Z,70.2
2023-01-07T01:43:17.880Z,69.8
2023-01-07T01:48:54.029Z,69.8
2023-01-07T01:54:31.437Z,69.6
2023-01-07T02:00:08.051Z,69.7
2023-01-07T02:05:43.065Z,69.8
2023-01-07T02:11:19.368Z,69.5
2023-01-07T02:16:55.592Z,69.7
2023-01-07T02:22:31.091Z,69.8
2023-01-07T02:28:07.309Z,69.5
2023-01-07T02:33:44.442Z,70
2023-01-07T02:39:19.505Z,69.7
2023-01-07T02:44:56.215Z,69.6
2023-01-07T02:50:32.317Z,69.3
2023-01-07T02:56:08.605Z,69.6
2023-01-07T03:01:44.779Z,69.8
2023-01-07T03:07:22.852Z,69.4
2023-01-07T03:12:58.285Z,69.2
2023-01-07T03:18:34.810Z,67.8
2023-01-07T03:24:11.016Z,68
2023-01-07T03:29:46.028Z,67.7
2023-01-07T03:35:21.829Z,67.1
2023-01-07T03:40:59.063Z,67.2
2023-01-07T03:46:34.191Z,67.6
2023-01-07T03:52:10.057Z,68
2023-01-07T03:57:45.895Z,67.3
2023-01-07T04:03:21.152Z,67.2
2023-01-07T04:08:56.780Z,65.8
2023-01-07T04:14:33.151Z,65
2023-01-07T04:20:08.778Z,64
2023-01-07T04:25:44.717Z,64.2
2023-01-07T04:31:21.616Z,64.4
2023-01-07T04:36:57.876Z,64.5
2023-01-07T04:42:34.096Z,64.7
2023-01-07T04:48:09.735Z,64.6
2023-01-07T04:53:44.910Z,65.4
2023-01-07T04:59:20.901Z,65.5
2023-01-07T05:04:56.545Z,65.5
2023-01-07T05:10:31.203Z,65.1
2023-01-07T05:16:07.327Z,64.2
2023-01-07T05:21:43.349Z,64.3
2023-01-07T05:27:18.248Z,63
2023-01-07T05:32:54.320Z,62
2023-01-07T05:38:30.176Z,60.8
2023-01-07T05:44:06.052Z,60.9
2023-01-07T05:49:42.174Z,58.7
2023-01-07T05:55:19.140Z,60.3
2023-01-07T06:00:55.591Z,61.9
2023-01-07T06:06:32.343Z,62.6
2023-01-07T06:12:08.028Z,63.4
2023-01-07T06:17:42.876Z,63.5
2023-01-07T06:23:19.663Z,64.4
2023-01-07T06:28:55.564Z,64.2
2023-01-07T06:34:30.849Z,64.7
2023-01-07T06:40:06.684Z,64.7
2023-01-07T06:45:42.559Z,64.4
2023-01-07T06:51:17.535Z,64.8
2023-01-07T06:56:54.339Z,64.9
2023-01-07T07:02:31.688Z,64.3
2023-01-07T07:08:10.047Z,64.4
2023-01-07T07:13:47.485Z,65.3
2023-01-07T07:19:24.361Z,65.2
2023-01-07T07:25:00.347Z,68.3
2023-01-07T07:30:48.433Z,71.7
2023-01-07T07:36:25.816Z,70.1
2023-01-07T07:42:01.603Z,70
2023-01-07T07:47:44.862Z,69.1
2023-01-07T07:53:52.090Z,71.3
2023-01-07T07:59:27.909Z,73
2023-01-07T08:05:06.914Z,68.8
2023-01-07T08:10:45.325Z,71.3
2023-01-07T08:16:30.640Z,72.7
2023-01-07T08:22:17.173Z,70.1
2023-01-07T08:28:04.124Z,71.1
2023-01-07T08:33:39.157Z,71.1
2023-01-07T08:39:17.514Z,71.8
2023-01-07T08:44:54.284Z,70.7
2023-01-07T08:50:29.615Z,72.7
2023-01-07T08:56:14.395Z,64.8
2023-01-07T09:01:50.731Z,66.4
2023-01-07T09:07:28.797Z,66.3
2023-01-07T09:13:06.289Z,66.6
2023-01-07T09:18:41.771Z,66.8
2023-01-07T09:24:20.153Z,59.9
2023-01-07T09:31:00.568Z,63.3
2023-01-07T09:36:36.438Z,64.1
2023-01-07T09:42:37.154Z,67.1
2023-01-07T09:48:13.728Z,66.9
2023-01-07T09:53:51.222Z,66.3
2023-01-07T09:59:26.328Z,65.1
2023-01-07T10:05:09.633Z,65.3
2023-01-07T10:10:45.534Z,64.6
2023-01-07T10:16:22.040Z,61.5
2023-01-07T10:21:59.097Z,59.1
2023-01-07T10:27:35.132Z,58.9
2023-01-07T10:33:19.093Z,51.3
2023-01-07T10:38:55.340Z,57.7
2023-01-07T10:44:58.362Z,53
2023-01-07T10:51:04.653Z,50.7
2023-01-07T10:56:45.484Z,49.9
2023-01-07T11:02:22.411Z,50.1
2023-01-07T11:07:59.845Z,46.1
2023-01-07T11:13:38.807Z,48
2023-01-07T11:19:25.841Z,47
2023-01-07T11:25:00.938Z,46.9
2023-01-07T11:30:36.877Z,50.6
2023-01-07T11:36:12.468Z,52.4
2023-01-07T11:41:58.145Z,48.2
2023-01-07T11:48:17.451Z,55.4
2023-01-07T11:53:51.590Z,50.4
2023-01-07T11:59:38.634Z,46.8
2023-01-07T12:05:23.551Z,49.4
2023-01-07T12:12:01.487Z,50.6
2023-01-07T12:17:46.083Z,53.7
2023-01-07T12:23:22.431Z,53.1
2023-01-07T12:28:58.333Z,58
2023-01-07T12:34:44.834Z,52.8
2023-01-07T12:40:21.135Z,57.5
2023-01-07T12:45:57.430Z,60.4
2023-01-07T12:51:34.704Z,54.8
2023-01-07T12:57:13.674Z,58.6
2023-01-07T13:02:49.760Z,59.7
2023-01-07T13:08:41.364Z,60.9
2023-01-07T13:14:23.129Z,60
2023-01-07T13:20:08.586Z,59.4
2023-01-07T13:25:43.428Z,59.1
2023-01-07T13:31:19.735Z,61.5
2023-01-07T13:37:03.698Z,59.7
2023-01-07T13:42:41.515Z,58.1
2023-01-07T13:48:17.121Z,59.9
2023-01-07T13:53:56.468Z,54.2
2023-01-07T13:59:32.980Z,57.2
2023-01-07T14:05:09.689Z,61
2023-01-07T14:10:45.786Z,61.9
2023-01-07T14:16:24.850Z,60
2023-01-07T14:22:05.611Z,61.4
2023-01-07T14:27:42.366Z,54.6
2023-01-07T14:33:17.976Z,55.3
2023-01-07T14:38:54.195Z,56.9
2023-01-07T14:44:34.415Z,59.4
2023-01-07T14:50:23.921Z,62.6
2023-01-07T14:56:00.262Z,57
2023-01-07T15:01:36.967Z,55.1
2023-01-07T15:07:13.634Z,56.2
2023-01-07T15:12:56.651Z,54.1
2023-01-07T15:18:32.773Z,61.9
2023-01-07T15:24:08.140Z,56.8
2023-01-07T15:29:54.225Z,57.5
2023-01-07T15:35:29.560Z,63
2023-01-07T15:41:05.017Z,63.2
2023-01-07T15:46:42.236Z,60.2
2023-01-07T15:52:18.559Z,61.9
2023-01-07T15:58:26.405Z,63.7
2023-01-07T16:04:02.960Z,60.9
2023-01-07T16:09:50.306Z,62.8
2023-01-07T16:15:25.663Z,71.9
2023-01-07T16:21:06.875Z,73.8
2023-01-07T16:26:50.433Z,68.1
2023-01-07T16:32:25.549Z,67.3
2023-01-07T16:38:02.198Z,73.1
2023-01-07T16:43:43.013Z,72.6
2023-01-07T16:49:17.966Z,72.7
2023-01-07T16:54:54.144Z,72.6
2023-01-07T17:00:42.033Z,73.5
2023-01-07T17:06:19.580Z,70.9
2023-01-07T17:11:58.237Z,71.7
2023-01-07T17:17:34.022Z,71.6
2023-01-07T17:23:09.172Z,69.8
2023-01-07T17:28:48.748Z,68.6
2023-01-07T17:35:11.728Z,70
2023-01-07T17:40:50.977Z,70.6
2023-01-07T17:46:30.455Z,75
2023-01-07T17:52:06.626Z,75.4
2023-01-07T17:57:42.912Z,73.8
2023-01-07T18:03:20.851Z,72.6
2023-01-07T18:08:57.676Z,71.1
2023-01-07T18:15:23.477Z,64.2
2023-01-07T18:21:00.392Z,68.9
2023-01-07T18:26:46.417Z,73.1
2023-01-07T18:32:21.688Z,76.4
2023-01-07T18:38:07.488Z,77.1
2023-01-07T18:43:55.530Z,78.3
2023-01-07T18:49:59.061Z,76.9
2023-01-07T18:56:02.279Z,71
2023-01-07T19:02:16.490Z,74.4
2023-01-07T19:08:10.858Z,77.5
2023-01-07T19:13:58.749Z,76
2023-01-07T19:19:49.020Z,75.7
2023-01-07T19:25:40.269Z,75.3
2023-01-07T19:31:37.121Z,75.1
2023-01-07T19:37:13.330Z,75.1
2023-01-07T19:42:57.569Z,75.6
2023-01-07T19:48:33.303Z,74.9
2023-01-07T19:54:09.225Z,74.4
2023-01-07T19:59:51.055Z,73.7
2023-01-07T20:05:31.394Z,75.1
2023-01-07T20:11:34.619Z,77.4
2023-01-07T20:17:12.296Z,77.9
2023-01-07T20:23:14.502Z,78.2
2023-01-07T20:28:59.571Z,78.6
2023-01-07T20:34:43.126Z,78.3
2023-01-07T20:40:20.035Z,78.3
2023-01-07T20:45:56.044Z,78.2
2023-01-07T20:51:33.475Z,78.5
2023-01-07T20:57:10.054Z,79
2023-01-07T21:02:46.667Z,79.1
2023-01-07T21:08:22.251Z,79.5
2023-01-07T21:14:01.984Z,79.7
2023-01-07T21:19:37.937Z,80
2023-01-07T21:25:13.501Z,80
2023-01-07T21:30:57.393Z,79.6
2023-01-07T21:38:20.391Z,80
2023-01-07T21:43:56.941Z,80.1
2023-01-07T21:49:35.608Z,80.1
2023-01-07T21:55:11.419Z,80.2
2023-01-07T22:00:51.795Z,80.3
2023-01-07T22:06:30.029Z,80.3
2023-01-07T22:12:06.176Z,80.3
2023-01-07T22:17:41.242Z,80.5
2023-01-07T22:23:18.556Z,80.3
2023-01-07T22:29:03.538Z,80.4
2023-01-07T22:34:38.809Z,80.3
2023-01-07T22:40:29.223Z,80.3
2023-01-07T22:46:05.602Z,80.2
2023-01-07T22:52:50.061Z,79.7
2023-01-07T22:58:38.878Z,79.6
2023-01-07T23:04:15.193Z,79.8
2023-01-07T23:09:52.165Z,79.9
2023-01-07T23:15:28.995Z,79.8
2023-01-07T23:21:04.315Z,80
2023-01-07T23:26:40.196Z,80.1
2023-01-07T23:32:37.412Z,80
2023-01-07T23:38:12.335Z,79.8
2023-01-07T23:43:49.803Z,80
2023-01-07T23:49:42.017Z,79.8
2023-01-07T23:55:44.721Z,79.8
